Ban Ao Muang, Tajska

09:05 PM +07 on januar 23, 2018 (GMT +0700)
Krabi International School | | Change Station

Viš 92 ft 8.12 °N, 98.78 °E | Updated 15 seconds ago

Dez
Dez
76.5 °F
Feels Like 76 °F
N
0.0
Veter Spremenljivo Veter od VJV

Danes
High -- | Low -- °F
--% Chance of Precip.
Yesterday
High -- | Low -- °F
Precip. -- v
Zračni tlak 29.83 v
Vidljivost 5.6 milje
Oblaki Few 2000 ft
Pretezno oblacno 10000 ft
Toplotni indeks 76 °F
Rosišče 76 °F
Vlažnost 98%
Padavine 0.14 v
Snow Depth Not available.
6:45 AM 6:29 PM
Naraščajoči krajec, 36% visible
METAR VTSP 231330Z VRB01KT 9000 FEW020 BKN100 26/24 Q1010 NOSIG
Zračni tlak 29.83 v
Vidljivost 5.6 milje
Oblaki Few 2000 ft
Pretezno oblacno 10000 ft
Toplotni indeks 76 °F
Rosišče 76 °F
Vlažnost 98%
Padavine 0.14 v
Snow Depth Not available.
6:45 AM 6:29 PM
Naraščajoči krajec, 36% visible
METAR VTSP 231330Z VRB01KT 9000 FEW020 BKN100 26/24 Q1010 NOSIG

Get Severe Weather Alerts

Thanks for signing up!

Be on the lookout for a verification email in your inbox.

You'll start receiving the daily forecast at 6 AM.

×

10-Day Weather Forecast

No radar image for this location.
×

Almanac

Astronomija

Jan. 23, 2018 Rise Set
Actual Time
Civil Twilight
Nautical Twilight
Astronomical Twilight
Moon
Length Of Visible Light
Dolžina dneva
Tomorrow will be .
, % of the Moon is Illuminated

Današnji ekstremi

Country Highs Country Lows

Community

WunderPhotos

Category 6

Welcome to Category 6. This is the collective home for Weather Underground's featured writeups by Dr. Jeff Masters (right), Bob Henson (left), Chris Burt, and other regular contributors.

Nearby

Air Quality

  Air Quality AQ Index Pollutant
Not available.

Snow Depth

Station Depth Višina

Earthquake Activity

City Distance Mag. Time & Date
Minimum magnitude displayed is 2.5.

Coastal Water Temperatures

Mesto Temperatura

Stations

Nearby Weather Stations

Station Location Temp Občutek zaradi vetra Rosišče Vlažnost Veter Precip. Viš Obnovljeno Type